Bonner, Texas
Current Conditions -  °F | °C
As of 3:53 PM on Thursday 18 Dec 2014 (Local Time) from KMFE Reporting Station
Haze Haze  
Wind Chill: 66°   Ceiling: 2900
Heat Index: 66°   Visibility: 3mi
Dew Point: 61°   Wind: 6mph
Humidity: 84%   Direction: 300°WNW
Pressure: 29.97"   Gusts: NA
Location:  26.2031°N, 98.2299°W
Report Text: KMFE 182153Z 30005KT 3SM HZ OVC029 19/16 A2997 RMK AO2 SLP146 T01890161
Loading
Personal Weather Stations






























Interactive Weather Map New forecast layout! Learn more

10-Day Weather Forecast

Advertisements
Track Severe Weather on mobile